Aérodrome :







RETROUVEZ-NOUS SUR...

 
LOGIN :

S'inscrire | Disclaimer

   EN    FR    IT 

 









Légende :    VFR   VFR Marginal   IFR   IFR Intensif   IFR Très Intensif
Visi : 
Plafond : 
>= 8 km
>= 3000ft
5 à 8 km
1000 à 3000 ft
1500m à 5 km
500 à 1000 ft
800 à 1500m
200 à 500 ft
< 800m
< 200 ft
Symboles :   Orages  Brouillard  Fortes neiges  Fortes précipitations  Vent > 20 kt






- Altitude de l'aérodrome : 988 ft


KFVE - Northern Aroostook Regional

DERNIER METAR :
  • 241153Z AUTO 13008KT 10SM CLR M06/M08 A2990 RMK AO2 SLP135 T10561083 11022 21061 58006

METARs EXPIRÉS :
  • 241053Z AUTO 14007KT 10SM CLR M06/M08 A2992 RMK AO2 SLP141 T10561083
  • 240953Z AUTO 15008KT 10SM CLR M04/M08 A2992 RMK AO2 SLP142 T10441083

TAF KFVE
Valide du 24 à 12h jusqu'au 25 à 12h UTC


241120Z 2412/2512 16007KT P6SM SCT070
FM241300 16007KT P6SM SCT070
FM241800 19009KT P6SM SCT060
FM250100 24007KT P6SM SCT080
FM251000 27003KT P6SM SCT060



MET'MAP, la Météo Aéronautique d'un coup d'oeil ! - Copyright ORBIFLY Décembre 2007 - Disclaimer

ORBIFLY MET'MAP TEAM :

Programmation & Développement : Alexandra Zaïnal
Sur une idée originale de : Baudouin d'Aumeries
Assistance à la programmation : Marc-Olivier Méhu
Soutien technique & logistique : Manuel Goepfert

Contact : metmap@orbifly.com




SOURCES & CREDITS :

   NOAA